Time;durP1;ratioP1;P1;durP2;ratioP2;P2;SDS_P1;SDS_P2;PMS_P1;PMS_P2;Temp;Humidity;BMP_temperature;BMP_pressure;BME280_temperature;BME280_humidity;BME280_pressure;Samples;Min_cycle;Max_cycle;Signal;HPM_P1;HPM_P2
2024/02/16 00:00:56;;;;;;;7.90;2.22;;;10.70;99.90;;;;;;5008681;28;20041;-73
2024/02/16 00:03:29;;;;;;;6.13;2.50;;;10.70;99.90;;;;;;5028190;28;20052;-73
2024/02/16 00:05:54;;;;;;;4.35;2.08;;;10.70;99.90;;;;;;5025405;28;20040;-73
2024/02/16 00:08:20;;;;;;;11.35;2.60;;;10.70;99.90;;;;;;5022410;28;20055;-73
2024/02/16 00:10:47;;;;;;;6.80;2.08;;;10.60;99.90;;;;;;5010779;28;20260;-73
2024/02/16 00:13:13;;;;;;;12.15;3.10;;;10.70;99.90;;;;;;5021089;28;20045;-73
2024/02/16 00:15:39;;;;;;;14.75;3.15;;;10.60;99.90;;;;;;5009867;28;20582;-73
2024/02/16 00:18:06;;;;;;;7.55;2.13;;;10.70;99.90;;;;;;5042593;28;20044;-73
2024/02/16 00:20:31;;;;;;;8.40;2.45;;;10.60;99.90;;;;;;5023389;28;20127;-73
2024/02/16 00:22:58;;;;;;;7.00;2.28;;;10.60;99.90;;;;;;5026325;28;20483;-74
2024/02/16 00:25:24;;;;;;;9.25;2.78;;;10.60;99.90;;;;;;4991942;28;20098;-73
2024/02/16 00:27:52;;;;;;;5.70;2.30;;;10.50;99.90;;;;;;5012209;28;20045;-73
2024/02/16 00:30:19;;;;;;;9.32;2.40;;;10.50;99.90;;;;;;5039660;28;20536;-73
2024/02/16 00:32:47;;;;;;;6.68;2.45;;;10.40;99.90;;;;;;5007460;28;20052;-73
2024/02/16 00:35:16;;;;;;;7.10;2.65;;;10.50;99.90;;;;;;5005370;28;20731;-73
2024/02/16 00:37:42;;;;;;;6.45;2.50;;;10.40;99.90;;;;;;5019990;28;20688;-73
2024/02/16 00:40:08;;;;;;;6.20;2.60;;;10.40;99.90;;;;;;5010365;28;20487;-73
2024/02/16 00:42:34;;;;;;;6.10;2.40;;;10.40;99.90;;;;;;5009791;28;20052;-73
2024/02/16 00:45:00;;;;;;;10.18;2.78;;;10.40;99.90;;;;;;5010639;28;20037;-73
2024/02/16 00:47:27;;;;;;;7.32;2.92;;;10.30;99.90;;;;;;4990368;28;20033;-72
2024/02/16 00:49:53;;;;;;;8.07;2.55;;;10.30;99.90;;;;;;5007392;28;20061;-73
2024/02/16 00:52:19;;;;;;;7.70;2.70;;;10.30;99.90;;;;;;5024196;28;20125;-73
2024/02/16 00:54:46;;;;;;;9.05;2.60;;;10.30;99.90;;;;;;5009833;28;20049;-73
2024/02/16 00:57:14;;;;;;;8.23;3.30;;;10.30;99.90;;;;;;5025140;28;20052;-73
2024/02/16 00:59:42;;;;;;;6.72;2.15;;;10.20;99.90;;;;;;5008870;28;20076;-73
2024/02/16 01:02:10;;;;;;;8.68;2.45;;;10.20;99.90;;;;;;5004076;28;20384;-73
2024/02/16 01:04:36;;;;;;;3.95;2.13;;;10.20;99.90;;;;;;5005597;28;20060;-73
2024/02/16 01:07:03;;;;;;;4.28;2.50;;;10.20;99.90;;;;;;5038494;28;20127;-73
2024/02/16 01:09:28;;;;;;;7.78;2.45;;;10.20;99.90;;;;;;5042865;28;20202;-73
2024/02/16 01:11:54;;;;;;;7.20;2.47;;;10.10;99.90;;;;;;5006688;28;20120;-73
2024/02/16 01:14:20;;;;;;;4.97;2.53;;;10.10;99.90;;;;;;5007082;28;20060;-73
2024/02/16 01:16:46;;;;;;;3.90;2.47;;;10.00;99.90;;;;;;5007272;28;20402;-73
2024/02/16 01:19:12;;;;;;;8.50;2.50;;;10.00;99.90;;;;;;5020522;28;20165;-73
2024/02/16 01:21:38;;;;;;;8.88;2.20;;;10.10;99.90;;;;;;5005335;28;20106;-73
2024/02/16 01:24:04;;;;;;;12.68;2.58;;;10.00;99.90;;;;;;4993530;28;20032;-73
2024/02/16 01:26:31;;;;;;;3.83;2.20;;;10.00;99.90;;;;;;5025601;28;20049;-73
2024/02/16 01:28:58;;;;;;;8.13;2.35;;;10.00;99.90;;;;;;5023210;28;20048;-73
2024/02/16 01:31:23;;;;;;;6.40;2.28;;;9.90;99.90;;;;;;5007389;28;20139;-73
2024/02/16 01:33:49;;;;;;;12.43;3.25;;;9.90;99.90;;;;;;5021447;28;20057;-73
2024/02/16 01:36:15;;;;;;;8.75;2.53;;;9.90;99.90;;;;;;5025260;28;20383;-73
2024/02/16 01:38:41;;;;;;;3.25;2.05;;;9.90;99.90;;;;;;5006718;28;20048;-73
2024/02/16 01:41:08;;;;;;;6.97;2.28;;;9.90;99.90;;;;;;5024004;28;20138;-73
2024/02/16 01:43:34;;;;;;;7.45;2.55;;;9.90;99.90;;;;;;4995993;28;20475;-73
2024/02/16 01:46:00;;;;;;;4.35;2.45;;;9.80;99.90;;;;;;5006672;28;20106;-73
2024/02/16 01:48:27;;;;;;;7.60;2.88;;;9.80;99.90;;;;;;5005524;28;20060;-73
2024/02/16 01:50:54;;;;;;;7.82;2.95;;;9.80;99.90;;;;;;5021662;28;20049;-73
2024/02/16 01:53:21;;;;;;;4.82;2.42;;;9.80;99.90;;;;;;5018008;28;20095;-73
2024/02/16 01:55:47;;;;;;;3.50;2.28;;;9.70;99.90;;;;;;5024241;28;20537;-73
2024/02/16 01:58:13;;;;;;;7.75;2.60;;;9.80;99.90;;;;;;4985969;28;20041;-73
2024/02/16 02:00:41;;;;;;;7.07;2.72;;;9.70;99.90;;;;;;5018512;28;20199;-73
2024/02/16 02:03:07;;;;;;;5.20;2.72;;;9.80;99.90;;;;;;5005422;28;20096;-73
2024/02/16 02:05:33;;;;;;;12.25;2.30;;;9.70;99.90;;;;;;5005326;28;20402;-73
2024/02/16 02:07:59;;;;;;;10.35;2.40;;;9.70;99.90;;;;;;5008374;28;20033;-73
2024/02/16 02:10:25;;;;;;;6.47;2.40;;;9.70;99.90;;;;;;4989303;28;20156;-73
2024/02/16 02:12:50;;;;;;;6.07;2.55;;;9.70;99.90;;;;;;5030748;28;20546;-73
2024/02/16 02:15:16;;;;;;;7.38;2.50;;;9.70;99.90;;;;;;5032865;28;20123;-73
2024/02/16 02:17:42;;;;;;;5.32;2.65;;;9.60;99.90;;;;;;5026912;28;20045;-73
2024/02/16 02:20:10;;;;;;;8.20;2.70;;;9.70;99.90;;;;;;5031104;28;20049;-73
2024/02/16 02:22:38;;;;;;;13.18;2.70;;;9.60;99.90;;;;;;5040929;28;20577;-73
2024/02/16 02:25:04;;;;;;;6.07;2.85;;;9.60;99.90;;;;;;5030393;28;20407;-73
2024/02/16 02:27:31;;;;;;;9.50;2.63;;;9.60;99.90;;;;;;5030215;28;20040;-72
2024/02/16 02:29:59;;;;;;;6.13;2.30;;;9.60;99.90;;;;;;5044730;28;20466;-73
2024/02/16 02:32:25;;;;;;;3.05;2.30;;;9.50;99.90;;;;;;5006898;28;20064;-73
2024/02/16 02:34:51;;;;;;;7.35;2.40;;;9.50;99.90;;;;;;5011048;28;20115;-73
2024/02/16 02:37:17;;;;;;;3.63;2.28;;;9.50;99.90;;;;;;4992372;28;20048;-73
2024/02/16 02:39:43;;;;;;;3.75;1.98;;;9.60;99.90;;;;;;5030561;28;20071;-73
2024/02/16 02:42:10;;;;;;;5.00;2.13;;;9.50;99.90;;;;;;5031002;28;20055;-72
2024/02/16 02:44:36;;;;;;;8.02;2.05;;;9.60;99.90;;;;;;5011719;28;20550;-73
2024/02/16 02:47:02;;;;;;;4.50;2.20;;;9.50;99.90;;;;;;5010296;28;20050;-73
2024/02/16 02:49:28;;;;;;;5.28;2.22;;;9.50;99.90;;;;;;5008112;28;20053;-73
2024/02/16 02:51:53;;;;;;;4.80;2.20;;;9.50;99.90;;;;;;5009337;28;20049;-73
2024/02/16 02:54:19;;;;;;;7.28;2.22;;;9.50;99.90;;;;;;4987199;28;20110;-73
2024/02/16 02:56:45;;;;;;;11.85;2.30;;;9.50;99.90;;;;;;5027707;28;20131;-73
2024/02/16 02:59:11;;;;;;;8.07;2.28;;;9.50;99.90;;;;;;5044269;28;20052;-72
2024/02/16 03:01:37;;;;;;;9.73;2.55;;;9.50;99.90;;;;;;5009177;28;20040;-73
2024/02/16 03:04:04;;;;;;;8.55;2.20;;;9.40;99.90;;;;;;5046989;28;20044;-73
2024/02/16 03:06:29;;;;;;;8.10;2.25;;;9.40;99.90;;;;;;5050526;28;20071;-72
2024/02/16 03:08:55;;;;;;;4.53;2.25;;;9.50;99.90;;;;;;5028850;28;20045;-73
2024/02/16 03:11:21;;;;;;;6.68;2.80;;;9.40;99.90;;;;;;5027950;28;20503;-73
2024/02/16 03:13:47;;;;;;;10.73;2.63;;;9.40;99.90;;;;;;5010371;28;20068;-73
2024/02/16 03:16:14;;;;;;;3.22;2.15;;;9.40;99.90;;;;;;5010092;28;20503;-73
2024/02/16 03:18:40;;;;;;;7.25;2.30;;;9.40;99.90;;;;;;5025066;28;20040;-72
2024/02/16 03:21:07;;;;;;;5.80;2.00;;;9.40;99.90;;;;;;4998762;28;20056;-73
2024/02/16 03:23:33;;;;;;;6.72;2.35;;;9.30;99.90;;;;;;5031295;28;20033;-72
2024/02/16 03:25:59;;;;;;;11.07;2.38;;;9.40;99.90;;;;;;5014725;28;20040;-73
2024/02/16 03:28:25;;;;;;;13.85;3.00;;;9.40;99.90;;;;;;4991781;28;20045;-73
2024/02/16 03:30:51;;;;;;;5.28;2.20;;;9.30;99.90;;;;;;5027439;28;20136;-73
2024/02/16 03:33:17;;;;;;;6.82;2.75;;;9.30;99.90;;;;;;4993338;28;20052;-73
2024/02/16 03:35:42;;;;;;;6.05;2.80;;;9.40;99.90;;;;;;5031689;28;20086;-73
2024/02/16 03:38:08;;;;;;;7.07;2.47;;;9.30;99.90;;;;;;5028687;28;20055;-73
2024/02/16 03:40:35;;;;;;;4.80;2.33;;;9.30;99.90;;;;;;5028476;28;20044;-73
2024/02/16 03:43:01;;;;;;;3.13;2.50;;;9.40;99.90;;;;;;5009807;28;20040;-72
2024/02/16 03:45:29;;;;;;;4.05;2.28;;;9.40;99.90;;;;;;4990760;28;20138;-73
2024/02/16 03:47:55;;;;;;;7.05;2.35;;;9.40;99.90;;;;;;5008323;28;20394;-73
2024/02/16 03:50:22;;;;;;;6.05;2.55;;;9.40;99.90;;;;;;5046483;28;20056;-72
2024/02/16 03:52:48;;;;;;;4.43;2.33;;;9.40;99.90;;;;;;5025237;28;20132;-73
2024/02/16 03:55:14;;;;;;;5.57;2.55;;;9.40;99.90;;;;;;5015012;28;20049;-73
2024/02/16 03:57:40;;;;;;;6.32;2.45;;;9.40;99.90;;;;;;5044504;28;20526;-73
2024/02/16 04:00:07;;;;;;;4.53;2.22;;;9.40;99.90;;;;;;5022033;28;20461;-73
2024/02/16 04:02:32;;;;;;;6.30;2.63;;;9.40;99.90;;;;;;5021683;28;20037;-72
2024/02/16 04:04:58;;;;;;;7.95;2.60;;;9.40;99.90;;;;;;5007791;28;20051;-73
2024/02/16 04:07:24;;;;;;;7.25;2.70;;;9.30;99.90;;;;;;5011547;28;20037;-72
2024/02/16 04:09:51;;;;;;;5.75;2.30;;;9.30;99.90;;;;;;4993753;28;20052;-73
2024/02/16 04:12:17;;;;;;;8.73;2.60;;;9.30;99.90;;;;;;5025442;28;20048;-73
2024/02/16 04:14:43;;;;;;;8.35;3.08;;;9.30;99.90;;;;;;5015584;28;20045;-74
2024/02/16 04:17:09;;;;;;;5.82;2.42;;;9.40;99.90;;;;;;5014003;28;20045;-73
2024/02/16 04:19:37;;;;;;;9.50;2.40;;;9.40;99.90;;;;;;5011094;28;20113;-73
2024/02/16 04:22:03;;;;;;;8.65;2.35;;;9.40;99.90;;;;;;5007940;28;20049;-73
2024/02/16 04:24:29;;;;;;;7.30;3.00;;;9.40;99.90;;;;;;4997866;28;20495;-73
2024/02/16 04:26:55;;;;;;;8.85;2.67;;;9.40;99.90;;;;;;5045431;28;20052;-72
2024/02/16 04:29:20;;;;;;;5.50;2.28;;;9.40;99.90;;;;;;4996319;28;20039;-73
2024/02/16 04:31:46;;;;;;;12.95;2.03;;;9.40;99.90;;;;;;5005432;28;20066;-73
2024/02/16 04:34:13;;;;;;;4.95;2.17;;;9.40;99.90;;;;;;5011810;28;20048;-73
2024/02/16 04:36:39;;;;;;;11.55;3.03;;;9.40;99.90;;;;;;5027501;28;20038;-73
2024/02/16 04:39:05;;;;;;;6.65;2.60;;;9.30;99.90;;;;;;5004843;28;20384;-73
2024/02/16 04:41:30;;;;;;;7.40;2.55;;;9.30;99.90;;;;;;5024268;28;20566;-72
2024/02/16 04:43:56;;;;;;;7.93;2.55;;;9.30;99.90;;;;;;5030700;28;20123;-73
2024/02/16 04:46:23;;;;;;;12.43;3.45;;;9.30;99.90;;;;;;4989376;28;20049;-73
2024/02/16 04:48:48;;;;;;;3.08;2.30;;;9.20;99.90;;;;;;5010884;28;20059;-73
2024/02/16 04:51:14;;;;;;;7.63;2.63;;;9.20;99.90;;;;;;4993141;28;20053;-72
2024/02/16 04:53:40;;;;;;;6.80;2.22;;;9.20;99.90;;;;;;5024355;28;20055;-73
2024/02/16 04:56:06;;;;;;;13.73;2.58;;;9.20;99.90;;;;;;4990544;28;20744;-72
2024/02/16 04:58:32;;;;;;;7.82;2.70;;;9.20;99.90;;;;;;4995927;28;20472;-72
2024/02/16 05:00:58;;;;;;;5.22;2.13;;;9.20;99.90;;;;;;5024305;28;20114;-73
2024/02/16 05:03:24;;;;;;;6.75;2.47;;;9.20;99.90;;;;;;5010252;28;20546;-73
2024/02/16 05:05:53;;;;;;;6.25;3.17;;;9.20;99.90;;;;;;5046385;28;20146;-72
2024/02/16 05:08:22;;;;;;;6.78;2.28;;;9.20;99.90;;;;;;5022174;28;20049;-73
2024/02/16 05:10:48;;;;;;;9.75;2.95;;;9.30;99.90;;;;;;5021034;28;20087;-73
2024/02/16 05:13:14;;;;;;;7.32;2.40;;;9.20;99.90;;;;;;5007910;28;20124;-73
2024/02/16 05:15:40;;;;;;;3.03;2.35;;;9.30;99.90;;;;;;5008019;28;20513;-72
2024/02/16 05:18:05;;;;;;;4.47;2.42;;;9.30;99.90;;;;;;5024055;28;20040;-73
2024/02/16 05:20:31;;;;;;;9.00;2.40;;;9.30;99.90;;;;;;5015980;28;20041;-72
2024/02/16 05:22:57;;;;;;;8.35;2.55;;;9.20;99.90;;;;;;5040200;28;20048;-73
2024/02/16 05:25:23;;;;;;;4.25;2.53;;;9.20;99.90;;;;;;5025879;28;20227;-73
2024/02/16 05:27:48;;;;;;;4.47;2.53;;;9.20;99.90;;;;;;5007990;28;20403;-73
2024/02/16 05:30:15;;;;;;;6.75;2.20;;;9.30;99.90;;;;;;5028307;28;20064;-73
2024/02/16 05:32:42;;;;;;;7.22;2.58;;;9.30;99.90;;;;;;5006363;28;20783;-73
2024/02/16 05:35:12;;;;;;;4.85;2.88;;;9.20;99.90;;;;;;5022353;28;20056;-72
2024/02/16 05:37:39;;;;;;;;;;;9.30;99.90;;;;;;5042717;28;20079;-73
2024/02/16 05:40:18;;;;;;;6.50;2.55;;;9.30;99.90;;;;;;5026769;28;20481;-73
2024/02/16 05:42:48;;;;;;;8.55;3.03;;;9.20;99.90;;;;;;5003682;28;20072;-73
2024/02/16 05:45:14;;;;;;;5.93;1.95;;;9.30;99.90;;;;;;5028310;28;20048;-73
2024/02/16 05:47:45;;;;;;;5.80;2.97;;;9.30;99.90;;;;;;5006842;28;20048;-73
2024/02/16 05:50:15;;;;;;;7.25;2.78;;;9.40;99.90;;;;;;5042008;28;20060;-73
2024/02/16 05:52:42;;;;;;;;;;;9.30;99.90;;;;;;5024756;28;20099;-73
2024/02/16 05:55:09;;;;;;;8.55;3.28;;;9.40;99.90;;;;;;5021985;28;20730;-73
2024/02/16 05:57:35;;;;;;;6.55;3.00;;;9.30;99.90;;;;;;5024110;28;20037;-73
2024/02/16 06:00:06;;;;;;;14.85;3.00;;;9.20;99.90;;;;;;5031838;28;20059;-73
2024/02/16 06:02:33;;;;;;;3.65;2.78;;;9.30;99.90;;;;;;5022785;28;20353;-73
2024/02/16 06:05:00;;;;;;;5.00;2.92;;;9.30;99.90;;;;;;5007560;28;20044;-73
2024/02/16 06:07:25;;;;;;;6.20;3.00;;;9.30;99.90;;;;;;4990689;28;20502;-73
2024/02/16 06:09:51;;;;;;;8.70;2.50;;;9.30;99.90;;;;;;5020495;28;20045;-73
2024/02/16 06:12:20;;;;;;;10.05;3.00;;;9.30;99.90;;;;;;5023399;28;20468;-74
2024/02/16 06:14:46;;;;;;;5.10;2.53;;;9.40;99.90;;;;;;4992000;28;20123;-74
2024/02/16 06:17:14;;;;;;;4.85;2.65;;;9.30;99.90;;;;;;4989103;28;20184;-74
2024/02/16 06:19:41;;;;;;;9.50;3.17;;;9.40;99.90;;;;;;5012359;28;20510;-73
2024/02/16 06:22:08;;;;;;;3.97;2.70;;;9.30;99.90;;;;;;4994881;28;20131;-74
2024/02/16 06:24:35;;;;;;;5.93;2.78;;;9.30;99.90;;;;;;5007125;28;20049;-74
2024/02/16 06:27:00;;;;;;;7.78;2.60;;;9.30;99.90;;;;;;5024185;28;20124;-74
2024/02/16 06:29:26;;;;;;;10.23;3.30;;;9.20;99.90;;;;;;4989475;28;20805;-74
2024/02/16 06:31:52;;;;;;;4.28;2.90;;;9.30;99.90;;;;;;5011125;28;20407;-74
2024/02/16 06:34:19;;;;;;;9.70;2.85;;;9.20;99.90;;;;;;5009502;28;20487;-74
2024/02/16 06:36:45;;;;;;;7.60;2.80;;;9.20;99.90;;;;;;5009614;28;20041;-73
2024/02/16 06:39:16;;;;;;;6.68;3.10;;;9.20;99.90;;;;;;5010300;28;20049;-73
2024/02/16 06:41:44;;;;;;;5.00;2.90;;;9.20;99.90;;;;;;5011787;28;20040;-73
2024/02/16 06:44:10;;;;;;;8.98;2.88;;;9.20;99.90;;;;;;4995912;28;20049;-74
2024/02/16 06:46:36;;;;;;;6.35;2.60;;;9.20;99.90;;;;;;5003402;28;20128;-74
2024/02/16 06:49:01;;;;;;;6.15;2.92;;;9.20;99.90;;;;;;5022321;28;20057;-74
2024/02/16 06:51:28;;;;;;;6.88;2.60;;;9.20;99.90;;;;;;5003835;28;20475;-74
2024/02/16 06:53:54;;;;;;;6.85;2.58;;;9.20;99.90;;;;;;5005720;28;20166;-73
2024/02/16 06:56:20;;;;;;;4.97;2.40;;;9.20;99.90;;;;;;5008383;28;20415;-74
2024/02/16 06:58:47;;;;;;;6.65;2.75;;;9.30;99.90;;;;;;5009969;28;20049;-73
2024/02/16 07:01:18;;;;;;;4.85;2.67;;;9.30;99.90;;;;;;5025783;28;20056;-74
2024/02/16 07:03:44;;;;;;;7.63;3.33;;;9.20;99.90;;;;;;5006221;28;20106;-74
2024/02/16 07:06:13;;;;;;;6.93;2.88;;;9.20;99.90;;;;;;5043064;28;20068;-74
2024/02/16 07:08:43;;;;;;;6.45;2.50;;;9.20;99.90;;;;;;5006632;28;20045;-73
2024/02/16 07:11:11;;;;;;;6.32;2.35;;;9.30;99.90;;;;;;5026751;28;20051;-73
2024/02/16 07:13:38;;;;;;;4.90;2.67;;;9.20;99.90;;;;;;5010933;28;20041;-74
2024/02/16 07:16:06;;;;;;;11.95;2.90;;;9.30;99.90;;;;;;5022851;28;20036;-74
2024/02/16 07:18:33;;;;;;;8.85;3.10;;;9.30;99.90;;;;;;4991562;28;20496;-73
2024/02/16 07:20:59;;;;;;;8.55;3.08;;;9.40;99.90;;;;;;5008963;28;20118;-73
2024/02/16 07:23:25;;;;;;;5.40;2.95;;;9.40;99.90;;;;;;4996874;28;20044;-74
2024/02/16 07:25:55;;;;;;;6.60;2.50;;;9.40;99.90;;;;;;4995285;28;20047;-73
2024/02/16 07:28:21;;;;;;;6.72;2.78;;;9.40;99.90;;;;;;5023520;28;20132;-73
2024/02/16 07:30:47;;;;;;;5.25;2.60;;;9.40;99.90;;;;;;5013175;28;20376;-73
2024/02/16 07:33:13;;;;;;;7.30;2.63;;;9.50;99.90;;;;;;5023713;28;20070;-73
2024/02/16 07:35:38;;;;;;;6.82;2.47;;;9.50;99.90;;;;;;5009218;28;20048;-73
2024/02/16 07:38:05;;;;;;;10.05;2.90;;;9.50;99.90;;;;;;4994553;28;20040;-73
2024/02/16 07:40:31;;;;;;;6.38;2.70;;;9.60;99.90;;;;;;5028026;28;20115;-74
2024/02/16 07:42:57;;;;;;;5.97;2.75;;;9.70;99.90;;;;;;5022870;28;20396;-73
2024/02/16 07:45:24;;;;;;;4.63;2.40;;;9.60;99.90;;;;;;5010983;28;20060;-74
2024/02/16 07:47:51;;;;;;;4.03;2.20;;;9.70;99.90;;;;;;5026963;28;20051;-74
2024/02/16 07:50:23;;;;;;;7.07;3.30;;;9.80;99.90;;;;;;5007049;28;20060;-73
2024/02/16 07:52:50;;;;;;;5.75;2.85;;;9.80;99.90;;;;;;5010525;28;20091;-74
2024/02/16 07:55:20;;;;;;;7.10;3.08;;;9.80;99.90;;;;;;5025475;28;20052;-73
2024/02/16 07:57:47;;;;;;;7.47;3.03;;;9.90;99.90;;;;;;5021174;28;20037;-73
2024/02/16 08:00:13;;;;;;;7.75;2.75;;;9.90;99.90;;;;;;5005172;28;20112;-73
2024/02/16 08:02:39;;;;;;;4.60;2.20;;;10.00;99.90;;;;;;5009827;28;20045;-73
2024/02/16 08:05:07;;;;;;;6.53;2.30;;;10.10;99.90;;;;;;4991826;28;20103;-73
2024/02/16 08:07:33;;;;;;;8.15;2.90;;;10.20;99.90;;;;;;5025626;28;20068;-72
2024/02/16 08:10:00;;;;;;;8.32;3.00;;;10.30;99.90;;;;;;5007908;28;20040;-73
2024/02/16 08:12:27;;;;;;;5.43;2.70;;;10.30;99.90;;;;;;5028284;28;20348;-73
2024/02/16 08:14:54;;;;;;;4.93;2.92;;;10.50;99.90;;;;;;5027714;28;20076;-73
2024/02/16 08:17:20;;;;;;;9.70;3.25;;;10.60;99.90;;;;;;5007724;28;20041;-73
2024/02/16 08:19:53;;;;;;;6.60;2.60;;;10.60;99.90;;;;;;5008575;28;20087;-73
2024/02/16 08:22:19;;;;;;;4.25;1.83;;;10.70;99.90;;;;;;5022165;28;20291;-73
2024/02/16 08:24:46;;;;;;;8.20;2.30;;;10.70;99.90;;;;;;5006880;28;20041;-73
2024/02/16 08:27:12;;;;;;;6.10;1.98;;;10.80;99.90;;;;;;5005057;28;20041;-73
2024/02/16 08:29:38;;;;;;;3.55;2.15;;;10.80;99.90;;;;;;5022294;28;20059;-73
2024/02/16 08:32:05;;;;;;;4.93;2.30;;;10.90;99.90;;;;;;5022882;28;20045;-73
2024/02/16 08:34:31;;;;;;;7.22;2.00;;;11.00;99.90;;;;;;5026760;28;20161;-73
2024/02/16 08:36:57;;;;;;;2.33;1.73;;;11.00;99.90;;;;;;5009542;28;20076;-73
2024/02/16 08:39:26;;;;;;;8.27;2.65;;;11.00;99.90;;;;;;4988871;28;20160;-73
2024/02/16 08:41:52;;;;;;;1.10;1.00;;;11.10;99.90;;;;;;5023489;28;20578;-74
2024/02/16 08:44:18;;;;;;;2.65;1.88;;;11.10;99.90;;;;;;5012235;28;20087;-73
2024/02/16 08:46:46;;;;;;;1.30;1.08;;;11.10;99.90;;;;;;4992146;28;20051;-74
2024/02/16 08:49:12;;;;;;;1.30;0.65;;;11.20;99.90;;;;;;5008501;28;20064;-74
2024/02/16 08:51:38;;;;;;;8.82;3.00;;;11.20;99.90;;;;;;5022397;28;20056;-73
2024/02/16 08:54:04;;;;;;;5.82;2.85;;;11.30;99.90;;;;;;5025454;28;20151;-72
2024/02/16 08:56:30;;;;;;;3.42;2.45;;;11.30;99.90;;;;;;5006988;28;20130;-73
2024/02/16 08:58:56;;;;;;;4.05;2.30;;;11.30;99.90;;;;;;5005760;28;20071;-73
2024/02/16 09:01:36;;;;;;;6.18;2.47;;;11.40;99.90;;;;;;5005435;28;20041;-72
2024/02/16 09:04:02;;;;;;;7.93;2.25;;;11.40;99.90;;;;;;5026762;28;20096;-72
2024/02/16 09:06:28;;;;;;;10.65;2.15;;;11.40;99.90;;;;;;5026636;28;20069;-73
2024/02/16 09:08:56;;;;;;;3.70;2.17;;;11.50;99.90;;;;;;5006385;28;20079;-73
2024/02/16 09:11:22;;;;;;;2.85;2.03;;;11.50;99.90;;;;;;5009924;28;20146;-73
2024/02/16 09:13:48;;;;;;;3.85;2.28;;;11.50;99.90;;;;;;5023492;28;20116;-73
2024/02/16 09:16:14;;;;;;;4.75;2.42;;;11.50;99.90;;;;;;5022972;28;20040;-73
2024/02/16 09:18:40;;;;;;;4.45;2.25;;;11.50;99.90;;;;;;5007156;28;20033;-73
2024/02/16 09:21:07;;;;;;;7.28;2.30;;;11.50;99.90;;;;;;5006843;28;20652;-73
2024/02/16 09:23:34;;;;;;;5.45;2.25;;;11.60;99.90;;;;;;5010464;28;20494;-73
2024/02/16 09:26:00;;;;;;;5.70;2.75;;;11.60;99.90;;;;;;5019971;28;20060;-72
2024/02/16 09:28:27;;;;;;;6.60;2.42;;;11.60;99.90;;;;;;5006852;28;20041;-72
2024/02/16 09:30:55;;;;;;;4.30;2.22;;;11.60;99.90;;;;;;5026884;28;20067;-73
2024/02/16 09:33:21;;;;;;;5.78;2.58;;;11.60;99.90;;;;;;5019602;28;20099;-72
2024/02/16 09:35:48;;;;;;;8.77;2.40;;;11.70;99.90;;;;;;5012541;28;20118;-72
2024/02/16 09:38:13;;;;;;;5.80;2.83;;;11.70;99.90;;;;;;5004460;28;20127;-73
2024/02/16 09:40:40;;;;;;;10.35;2.80;;;11.70;99.90;;;;;;5028234;28;20138;-72
2024/02/16 09:43:05;;;;;;;5.10;3.50;;;11.80;99.90;;;;;;5007047;28;20049;-72
2024/02/16 09:45:32;;;;;;;7.82;3.35;;;11.80;99.90;;;;;;4993423;28;20041;-73
2024/02/16 09:47:58;;;;;;;4.40;2.50;;;11.90;99.90;;;;;;5024879;28;20067;-73
2024/02/16 09:50:26;;;;;;;1.13;1.02;;;11.90;99.90;;;;;;5022925;28;20423;-72
2024/02/16 09:52:54;;;;;;;2.78;1.13;;;11.90;99.90;;;;;;5029589;28;20052;-73
2024/02/16 09:55:20;;;;;;;8.02;3.25;;;12.00;99.90;;;;;;5036520;28;20049;-72
2024/02/16 09:57:48;;;;;;;5.53;2.58;;;12.10;99.90;;;;;;5040516;28;20037;-72
2024/02/16 10:00:14;;;;;;;5.32;2.88;;;12.10;99.90;;;;;;5018136;28;20060;-72
2024/02/16 10:02:44;;;;;;;4.13;2.85;;;12.10;99.90;;;;;;5023804;28;20085;-72
2024/02/16 10:05:15;;;;;;;2.60;1.27;;;12.20;99.90;;;;;;4987470;28;20390;-72
2024/02/16 10:07:41;;;;;;;6.85;2.28;;;12.30;99.90;;;;;;5021585;28;20165;-72
2024/02/16 10:10:33;;;;;;;7.22;2.05;;;12.30;99.90;;;;;;5039414;28;20514;-72
2024/02/16 10:13:07;;;;;;;4.55;3.10;;;12.40;99.90;;;;;;5021460;28;20063;-72
2024/02/16 10:15:35;;;;;;;9.40;3.00;;;12.50;99.90;;;;;;5006204;28;20055;-72
2024/02/16 10:18:02;;;;;;;7.25;3.50;;;12.50;99.90;;;;;;5028818;28;20036;-72
2024/02/16 10:20:28;;;;;;;5.82;2.53;;;12.60;99.90;;;;;;5006340;28;20114;-72
2024/02/16 10:23:08;;;;;;;8.23;3.30;;;12.70;99.90;;;;;;5020644;28;20050;-72
2024/02/16 10:25:40;;;;;;;4.00;2.13;;;12.80;99.90;;;;;;5021644;28;20067;-72
2024/02/16 10:28:13;;;;;;;5.47;3.13;;;12.90;99.90;;;;;;5028713;28;20406;-73
2024/02/16 10:30:42;;;;;;;3.22;2.75;;;13.00;99.90;;;;;;5023218;28;20059;-72
2024/02/16 10:33:09;;;;;;;4.65;1.42;;;13.00;99.90;;;;;;5029086;28;20045;-72
2024/02/16 10:35:36;;;;;;;5.47;3.17;;;13.10;99.90;;;;;;5032338;28;20094;-72
2024/02/16 10:38:06;;;;;;;5.03;2.58;;;13.10;99.90;;;;;;5010722;28;20044;-72
2024/02/16 10:40:38;;;;;;;4.78;1.52;;;13.20;99.90;;;;;;5010655;28;20943;-72
2024/02/16 10:43:05;;;;;;;5.25;3.90;;;13.20;99.90;;;;;;5018125;28;20044;-72
2024/02/16 10:45:36;;;;;;;8.27;2.88;;;13.30;99.90;;;;;;5031913;28;20059;-72
2024/02/16 10:48:04;;;;;;;5.65;3.30;;;13.40;99.90;;;;;;5022633;28;20053;-72
2024/02/16 10:50:31;;;;;;;5.18;2.90;;;13.40;99.90;;;;;;5025211;28;20056;-72
2024/02/16 10:53:03;;;;;;;1.55;1.38;;;13.50;99.90;;;;;;5010318;28;20049;-72
2024/02/16 10:55:28;;;;;;;6.30;3.83;;;13.50;99.90;;;;;;5039740;28;20071;-72
2024/02/16 10:57:57;;;;;;;6.85;3.58;;;13.60;99.90;;;;;;5012400;28;20491;-71
2024/02/16 11:00:23;;;;;;;6.30;3.15;;;13.60;99.90;;;;;;5041963;28;20049;-71
2024/02/16 11:03:03;;;;;;;5.13;3.00;;;13.60;99.90;;;;;;5008873;28;20056;-71
2024/02/16 11:05:36;;;;;;;4.00;2.50;;;13.50;99.90;;;;;;5021585;28;20055;-71
2024/02/16 11:08:11;;;;;;;10.70;3.13;;;13.40;99.90;;;;;;5025492;28;20059;-71
2024/02/16 11:10:37;;;;;;;3.95;2.58;;;13.40;99.90;;;;;;5018227;28;20391;-70
2024/02/16 11:13:08;;;;;;;4.03;3.53;;;13.30;99.90;;;;;;5011106;28;20045;-71
2024/02/16 11:15:36;;;;;;;10.73;4.50;;;13.30;99.90;;;;;;5007189;28;20118;-71
2024/02/16 11:18:02;;;;;;;7.65;4.70;;;13.30;99.90;;;;;;5008375;28;20592;-71
2024/02/16 11:20:28;;;;;;;5.40;4.45;;;13.20;99.90;;;;;;5027147;28;20044;-71
2024/02/16 11:23:11;;;;;;;3.72;3.22;;;13.20;99.90;;;;;;5021668;28;20048;-71
2024/02/16 11:25:38;;;;;;;11.88;4.55;;;13.20;99.90;;;;;;5008718;28;20059;-70
2024/02/16 11:28:04;;;;;;;6.45;3.35;;;13.20;99.90;;;;;;5024339;28;20053;-71
2024/02/16 11:30:34;;;;;;;16.13;3.10;;;13.10;99.90;;;;;;5022622;28;20048;-71
2024/02/16 11:33:00;;;;;;;10.23;5.25;;;13.10;99.90;;;;;;5022984;28;20044;-71
2024/02/16 11:35:26;;;;;;;5.55;2.80;;;13.00;99.90;;;;;;5031601;28;20051;-72
2024/02/16 11:37:52;;;;;;;8.10;4.95;;;13.00;99.90;;;;;;5037669;28;20053;-71
2024/02/16 11:40:19;;;;;;;10.32;5.22;;;12.90;99.90;;;;;;5030456;28;20392;-71
2024/02/16 11:42:46;;;;;;;3.45;2.85;;;12.90;99.90;;;;;;5028106;28;20072;-71
2024/02/16 11:45:12;;;;;;;6.85;3.58;;;12.90;99.90;;;;;;5004659;28;20076;-71
2024/02/16 11:47:38;;;;;;;6.53;4.45;;;12.70;99.90;;;;;;5022997;28;20527;-71
2024/02/16 11:50:09;;;;;;;12.00;6.70;;;12.80;99.90;;;;;;5012052;28;20060;-73
2024/02/16 11:52:38;;;;;;;6.40;3.38;;;12.70;99.90;;;;;;5026167;28;20049;-72
2024/02/16 11:55:08;;;;;;;9.55;5.90;;;12.60;99.90;;;;;;5022298;28;20320;-73
2024/02/16 11:57:34;;;;;;;;;;;12.60;99.90;;;;;;5022905;28;20072;-73
2024/02/16 12:00:07;;;;;;;8.60;5.82;;;12.50;99.90;;;;;;5023425;28;20456;-71
2024/02/16 12:02:37;;;;;;;2.88;2.60;;;12.40;99.90;;;;;;5019794;28;20036;-72
2024/02/16 12:05:03;;;;;;;;;;;12.20;99.90;;;;;;5006061;28;20041;-71
2024/02/16 12:07:29;;;;;;;4.55;2.65;;;12.10;99.90;;;;;;5022837;28;19925;-72
2024/02/16 12:10:00;;;;;;;2.67;2.33;;;12.00;99.90;;;;;;5020624;28;20045;-72
2024/02/16 12:12:27;;;;;;;16.40;7.70;;;11.90;99.90;;;;;;5022133;28;20041;-73
2024/02/16 12:14:56;;;;;;;7.45;4.15;;;11.70;99.90;;;;;;5027665;28;20072;-73
2024/02/16 12:17:24;;;;;;;16.80;6.47;;;11.70;99.90;;;;;;5043613;28;20053;-73
2024/02/16 12:19:51;;;;;;;12.05;4.45;;;11.70;99.90;;;;;;4993267;28;20053;-74
2024/02/16 12:22:18;;;;;;;10.15;5.22;;;11.60;99.90;;;;;;5024312;28;20629;-74
2024/02/16 12:24:50;;;;;;;3.47;2.10;;;11.60;99.90;;;;;;5009275;28;20190;-76
2024/02/16 12:27:16;;;;;;;8.23;4.88;;;11.50;99.90;;;;;;5025028;28;20114;-74
2024/02/16 12:29:42;;;;;;;4.82;3.10;;;11.50;99.90;;;;;;5025180;28;20103;-74
2024/02/16 12:32:11;;;;;;;3.53;2.60;;;11.50;99.90;;;;;;5022984;28;20108;-74
2024/02/16 12:34:37;;;;;;;7.82;3.80;;;11.50;99.90;;;;;;5028514;28;20149;-75
2024/02/16 12:37:07;;;;;;;6.13;3.45;;;11.50;99.90;;;;;;5024027;28;20033;-74
2024/02/16 12:39:34;;;;;;;5.78;3.72;;;11.50;99.90;;;;;;5009015;28;20060;-75
2024/02/16 12:42:00;;;;;;;7.30;4.15;;;11.40;99.90;;;;;;5005943;28;20049;-76
2024/02/16 12:44:26;;;;;;;4.38;3.22;;;11.40;99.90;;;;;;5032182;28;20239;-75
2024/02/16 12:46:51;;;;;;;3.15;2.58;;;11.40;99.90;;;;;;5021953;28;20248;-75
2024/02/16 12:49:21;;;;;;;5.60;2.97;;;11.30;99.90;;;;;;5024318;28;20128;-75
2024/02/16 12:51:51;;;;;;;10.02;4.00;;;11.30;99.90;;;;;;5007836;28;20154;-75